sensor_id;sensor_type;location;lat;lon;timestamp;pressure;altitude;pressure_sealevel;temperature;humidity
35989;BME280;22064;42.672;23.282;2022-12-08T00:00:45;94455.47;;;3.09;100.00
35989;BME280;22064;42.672;23.282;2022-12-08T00:03:11;94450.91;;;2.91;100.00
35989;BME280;22064;42.672;23.282;2022-12-08T00:05:36;94464.56;;;2.98;100.00
35989;BME280;22064;42.672;23.282;2022-12-08T00:08:21;94467.34;;;2.90;100.00
35989;BME280;22064;42.672;23.282;2022-12-08T00:11:11;94481.19;;;2.96;100.00
35989;BME280;22064;42.672;23.282;2022-12-08T00:13:36;94469.53;;;3.00;100.00
35989;BME280;22064;42.672;23.282;2022-12-08T00:16:02;94480.22;;;2.90;100.00
35989;BME280;22064;42.672;23.282;2022-12-08T00:18:27;94477.63;;;2.90;100.00
35989;BME280;22064;42.672;23.282;2022-12-08T00:20:56;94481.56;;;2.86;100.00
35989;BME280;22064;42.672;23.282;2022-12-08T00:23:22;94485.94;;;2.86;100.00
35989;BME280;22064;42.672;23.282;2022-12-08T00:25:48;94490.09;;;2.87;100.00
35989;BME280;22064;42.672;23.282;2022-12-08T00:28:13;94490.88;;;3.00;100.00
35989;BME280;22064;42.672;23.282;2022-12-08T00:30:40;94496.03;;;2.87;100.00
35989;BME280;22064;42.672;23.282;2022-12-08T00:33:05;94489.50;;;3.05;100.00
35989;BME280;22064;42.672;23.282;2022-12-08T00:35:31;94495.44;;;3.18;100.00
35989;BME280;22064;42.672;23.282;2022-12-08T00:37:56;94497.81;;;3.00;100.00
35989;BME280;22064;42.672;23.282;2022-12-08T00:40:22;94487.31;;;3.15;100.00
35989;BME280;22064;42.672;23.282;2022-12-08T00:42:48;94496.25;;;3.06;100.00
35989;BME280;22064;42.672;23.282;2022-12-08T00:45:14;94499.38;;;3.08;100.00
35989;BME280;22064;42.672;23.282;2022-12-08T00:47:39;94492.25;;;3.23;100.00
35989;BME280;22064;42.672;23.282;2022-12-08T00:50:06;94501.38;;;3.12;100.00
35989;BME280;22064;42.672;23.282;2022-12-08T00:52:31;94503.16;;;3.12;100.00
35989;BME280;22064;42.672;23.282;2022-12-08T00:54:57;94496.41;;;3.11;100.00
35989;BME280;22064;42.672;23.282;2022-12-08T00:57:22;94493.84;;;3.04;100.00
35989;BME280;22064;42.672;23.282;2022-12-08T00:59:48;94483.34;;;3.26;100.00
35989;BME280;22064;42.672;23.282;2022-12-08T01:02:14;94480.59;;;3.27;100.00
35989;BME280;22064;42.672;23.282;2022-12-08T01:04:39;94483.56;;;3.31;100.00
35989;BME280;22064;42.672;23.282;2022-12-08T01:07:06;94491.03;;;3.52;100.00
35989;BME280;22064;42.672;23.282;2022-12-08T01:09:31;94488.28;;;3.40;100.00
35989;BME280;22064;42.672;23.282;2022-12-08T01:11:57;94479.78;;;3.20;100.00
35989;BME280;22064;42.672;23.282;2022-12-08T01:14:22;94488.06;;;3.42;100.00
35989;BME280;22064;42.672;23.282;2022-12-08T01:16:48;94492.66;;;3.40;100.00
35989;BME280;22064;42.672;23.282;2022-12-08T01:19:15;94494.81;;;3.50;100.00
35989;BME280;22064;42.672;23.282;2022-12-08T01:21:41;94486.47;;;3.54;100.00
35989;BME280;22064;42.672;23.282;2022-12-08T01:24:16;94491.81;;;3.53;100.00
35989;BME280;22064;42.672;23.282;2022-12-08T01:26:43;94485.06;;;3.52;100.00
35989;BME280;22064;42.672;23.282;2022-12-08T01:29:09;94485.50;;;3.55;100.00
35989;BME280;22064;42.672;23.282;2022-12-08T01:31:34;94483.06;;;3.60;100.00
35989;BME280;22064;42.672;23.282;2022-12-08T01:34:00;94468.63;;;3.59;100.00
35989;BME280;22064;42.672;23.282;2022-12-08T01:36:29;94480.47;;;3.67;100.00
35989;BME280;22064;42.672;23.282;2022-12-08T01:38:57;94476.94;;;3.61;100.00
35989;BME280;22064;42.672;23.282;2022-12-08T01:41:25;94466.22;;;3.71;100.00
35989;BME280;22064;42.672;23.282;2022-12-08T01:46:30;94459.38;;;3.38;100.00
35989;BME280;22064;42.672;23.282;2022-12-08T01:54:47;94459.81;;;3.22;100.00
35989;BME280;22064;42.672;23.282;2022-12-08T01:57:24;94451.66;;;3.32;100.00
35989;BME280;22064;42.672;23.282;2022-12-08T02:00:00;94455.63;;;3.28;100.00
35989;BME280;22064;42.672;23.282;2022-12-08T02:02:31;94448.91;;;3.20;100.00
35989;BME280;22064;42.672;23.282;2022-12-08T02:04:58;94467.13;;;2.98;100.00
35989;BME280;22064;42.672;23.282;2022-12-08T02:07:24;94467.34;;;3.04;100.00
35989;BME280;22064;42.672;23.282;2022-12-08T02:09:51;94454.84;;;3.14;100.00
35989;BME280;22064;42.672;23.282;2022-12-08T02:12:18;94460.19;;;3.19;100.00
35989;BME280;22064;42.672;23.282;2022-12-08T02:14:43;94458.41;;;3.19;100.00
35989;BME280;22064;42.672;23.282;2022-12-08T02:17:35;94452.66;;;3.31;100.00
35989;BME280;22064;42.672;23.282;2022-12-08T02:23:03;94456.59;;;3.46;100.00
35989;BME280;22064;42.672;23.282;2022-12-08T02:26:06;94445.50;;;3.46;100.00
35989;BME280;22064;42.672;23.282;2022-12-08T02:42:26;94463.56;;;2.66;100.00
35989;BME280;22064;42.672;23.282;2022-12-08T02:45:00;94445.41;;;2.74;100.00
35989;BME280;22064;42.672;23.282;2022-12-08T02:47:29;94456.66;;;2.60;100.00
35989;BME280;22064;42.672;23.282;2022-12-08T02:49:56;94455.47;;;2.63;100.00
35989;BME280;22064;42.672;23.282;2022-12-08T02:54:52;94445.38;;;2.68;100.00
35989;BME280;22064;42.672;23.282;2022-12-08T02:57:30;94441.44;;;2.72;100.00
35989;BME280;22064;42.672;23.282;2022-12-08T03:00:16;94437.09;;;2.52;100.00
35989;BME280;22064;42.672;23.282;2022-12-08T03:11:42;94449.31;;;2.77;100.00
35989;BME280;22064;42.672;23.282;2022-12-08T03:14:13;94445.38;;;2.68;100.00
35989;BME280;22064;42.672;23.282;2022-12-08T03:16:43;94446.56;;;2.72;100.00
35989;BME280;22064;42.672;23.282;2022-12-08T03:19:26;94436.88;;;2.81;100.00
35989;BME280;22064;42.672;23.282;2022-12-08T03:21:56;94442.63;;;2.69;100.00
35989;BME280;22064;42.672;23.282;2022-12-08T03:24:31;94445.75;;;2.51;100.00
35989;BME280;22064;42.672;23.282;2022-12-08T03:27:02;94433.91;;;2.70;100.00
35989;BME280;22064;42.672;23.282;2022-12-08T03:29:29;94432.31;;;2.83;100.00
35989;BME280;22064;42.672;23.282;2022-12-08T03:31:57;94439.25;;;2.89;100.00
35989;BME280;22064;42.672;23.282;2022-12-08T03:34:27;94445.59;;;2.99;100.00
35989;BME280;22064;42.672;23.282;2022-12-08T03:36:54;94445.16;;;2.96;100.00
35989;BME280;22064;42.672;23.282;2022-12-08T03:39:20;94443.00;;;2.53;100.00
35989;BME280;22064;42.672;23.282;2022-12-08T03:41:46;94450.53;;;2.74;100.00
35989;BME280;22064;42.672;23.282;2022-12-08T03:44:12;94449.16;;;2.59;100.00
35989;BME280;22064;42.672;23.282;2022-12-08T03:46:37;94448.16;;;2.53;100.00
35989;BME280;22064;42.672;23.282;2022-12-08T03:49:03;94444.97;;;2.71;100.00
35989;BME280;22064;42.672;23.282;2022-12-08T03:51:28;94453.50;;;2.78;100.00
35989;BME280;22064;42.672;23.282;2022-12-08T03:53:55;94454.88;;;2.61;100.00
35989;BME280;22064;42.672;23.282;2022-12-08T03:56:32;94441.22;;;2.80;100.00
35989;BME280;22064;42.672;23.282;2022-12-08T03:58:58;94455.06;;;2.86;100.00
35989;BME280;22064;42.672;23.282;2022-12-08T04:01:24;94454.88;;;3.00;100.00
35989;BME280;22064;42.672;23.282;2022-12-08T04:03:50;94448.94;;;2.93;100.00
35989;BME280;22064;42.672;23.282;2022-12-08T04:06:16;94441.00;;;2.55;100.00
35989;BME280;22064;42.672;23.282;2022-12-08T04:08:42;94463.34;;;2.54;100.00
35989;BME280;22064;42.672;23.282;2022-12-08T04:11:08;94474.81;;;2.39;100.00
35989;BME280;22064;42.672;23.282;2022-12-08T04:13:35;94465.94;;;2.48;100.00
35989;BME280;22064;42.672;23.282;2022-12-08T04:16:02;94462.41;;;2.62;100.00
35989;BME280;22064;42.672;23.282;2022-12-08T04:18:28;94463.38;;;2.61;100.00
35989;BME280;22064;42.672;23.282;2022-12-08T04:20:54;94471.09;;;2.74;100.00
35989;BME280;22064;42.672;23.282;2022-12-08T04:23:19;94464.16;;;2.88;100.00
35989;BME280;22064;42.672;23.282;2022-12-08T04:25:45;94460.63;;;3.03;100.00
35989;BME280;22064;42.672;23.282;2022-12-08T04:28:10;94465.16;;;2.87;100.00
35989;BME280;22064;42.672;23.282;2022-12-08T04:30:37;94464.75;;;3.04;100.00
35989;BME280;22064;42.672;23.282;2022-12-08T04:33:03;94459.22;;;3.07;100.00
35989;BME280;22064;42.672;23.282;2022-12-08T04:35:28;94458.44;;;3.13;100.00
35989;BME280;22064;42.672;23.282;2022-12-08T04:37:54;94461.78;;;3.07;100.00
35989;BME280;22064;42.672;23.282;2022-12-08T04:40:20;94462.00;;;2.85;100.00
35989;BME280;22064;42.672;23.282;2022-12-08T04:42:46;94455.66;;;2.94;100.00
35989;BME280;22064;42.672;23.282;2022-12-08T04:45:11;94457.06;;;2.90;100.00
35989;BME280;22064;42.672;23.282;2022-12-08T04:47:37;94453.47;;;3.05;100.00
35989;BME280;22064;42.672;23.282;2022-12-08T04:50:04;94454.06;;;3.20;100.00
35989;BME280;22064;42.672;23.282;2022-12-08T04:52:29;94452.69;;;3.24;100.00
35989;BME280;22064;42.672;23.282;2022-12-08T04:54:55;94464.94;;;3.29;100.00
35989;BME280;22064;42.672;23.282;2022-12-08T04:57:20;94472.84;;;3.40;100.00
35989;BME280;22064;42.672;23.282;2022-12-08T04:59:46;94471.03;;;3.47;100.00
35989;BME280;22064;42.672;23.282;2022-12-08T05:02:12;94463.34;;;3.34;100.00
35989;BME280;22064;42.672;23.282;2022-12-08T05:04:37;94466.88;;;3.33;100.00
35989;BME280;22064;42.672;23.282;2022-12-08T05:07:03;94469.66;;;3.38;100.00
35989;BME280;22064;42.672;23.282;2022-12-08T05:09:29;94483.69;;;3.42;100.00
35989;BME280;22064;42.672;23.282;2022-12-08T05:11:54;94485.31;;;3.17;100.00
35989;BME280;22064;42.672;23.282;2022-12-08T05:14:20;94493.84;;;3.04;100.00
35989;BME280;22064;42.672;23.282;2022-12-08T05:16:46;94488.09;;;2.82;100.00
35989;BME280;22064;42.672;23.282;2022-12-08T05:19:12;94487.31;;;2.95;100.00
35989;BME280;22064;42.672;23.282;2022-12-08T05:21:38;94475.84;;;3.04;100.00
35989;BME280;22064;42.672;23.282;2022-12-08T05:24:04;94479.59;;;3.08;100.00
35989;BME280;22064;42.672;23.282;2022-12-08T05:26:29;94491.66;;;3.28;100.00
35989;BME280;22064;42.672;23.282;2022-12-08T05:28:55;94498.59;;;3.00;100.00
35989;BME280;22064;42.672;23.282;2022-12-08T05:31:21;94488.50;;;2.66;100.00
35989;BME280;22064;42.672;23.282;2022-12-08T05:33:48;94488.09;;;2.82;100.00
35989;BME280;22064;42.672;23.282;2022-12-08T05:36:15;94500.13;;;2.48;100.00
35989;BME280;22064;42.672;23.282;2022-12-08T05:38:41;94509.56;;;2.28;100.00
35989;BME280;22064;42.672;23.282;2022-12-08T05:41:08;94501.47;;;2.31;100.00
35989;BME280;22064;42.672;23.282;2022-12-08T05:43:34;94503.47;;;2.36;100.00
35989;BME280;22064;42.672;23.282;2022-12-08T05:46:00;94506.81;;;2.43;100.00
35989;BME280;22064;42.672;23.282;2022-12-08T05:48:26;94506.78;;;2.23;100.00
35989;BME280;22064;42.672;23.282;2022-12-08T05:50:51;94504.22;;;2.23;100.00
35989;BME280;22064;42.672;23.282;2022-12-08T05:53:18;94505.41;;;2.27;100.00
35989;BME280;22064;42.672;23.282;2022-12-08T05:55:45;94501.81;;;2.15;100.00
35989;BME280;22064;42.672;23.282;2022-12-08T05:58:16;94504.59;;;2.20;100.00
35989;BME280;22064;42.672;23.282;2022-12-08T06:00:42;94513.69;;;2.16;100.00
35989;BME280;22064;42.672;23.282;2022-12-08T06:03:10;94510.88;;;2.11;100.00
35989;BME280;22064;42.672;23.282;2022-12-08T06:05:36;94510.66;;;2.05;100.00
35989;BME280;22064;42.672;23.282;2022-12-08T06:08:01;94513.28;;;2.12;100.00
35989;BME280;22064;42.672;23.282;2022-12-08T06:10:27;94522.41;;;2.28;100.00
35989;BME280;22064;42.672;23.282;2022-12-08T06:12:53;94526.94;;;2.19;100.00
35989;BME280;22064;42.672;23.282;2022-12-08T06:15:18;94521.59;;;2.21;100.00
35989;BME280;22064;42.672;23.282;2022-12-08T06:17:44;94529.34;;;2.27;100.00
35989;BME280;22064;42.672;23.282;2022-12-08T06:20:10;94521.38;;;2.09;100.00
35989;BME280;22064;42.672;23.282;2022-12-08T06:22:36;94528.63;;;2.05;100.00
35989;BME280;22064;42.672;23.282;2022-12-08T06:25:02;94532.78;;;2.00;100.00
35989;BME280;22064;42.672;23.282;2022-12-08T06:27:27;94540.94;;;2.10;100.00
35989;BME280;22064;42.672;23.282;2022-12-08T06:29:53;94521.94;;;2.04;100.00
35989;BME280;22064;42.672;23.282;2022-12-08T06:32:18;94530.91;;;2.22;100.00
35989;BME280;22064;42.672;23.282;2022-12-08T06:34:44;94522.81;;;2.25;100.00
35989;BME280;22064;42.672;23.282;2022-12-08T06:37:10;94516.31;;;2.36;100.00
35989;BME280;22064;42.672;23.282;2022-12-08T06:39:36;94514.59;;;2.56;100.00
35989;BME280;22064;42.672;23.282;2022-12-08T06:42:01;94519.19;;;2.81;100.00
35989;BME280;22064;42.672;23.282;2022-12-08T06:44:46;94515.44;;;2.90;100.00
35989;BME280;22064;42.672;23.282;2022-12-08T06:47:12;94519.56;;;3.11;100.00
35989;BME280;22064;42.672;23.282;2022-12-08T06:49:38;94506.72;;;3.31;100.00
35989;BME280;22064;42.672;23.282;2022-12-08T06:52:03;94514.38;;;3.51;100.00
35989;BME280;22064;42.672;23.282;2022-12-08T06:54:29;94521.50;;;3.68;100.00
35989;BME280;22064;42.672;23.282;2022-12-08T06:56:55;94517.69;;;3.84;100.00
35989;BME280;22064;42.672;23.282;2022-12-08T06:59:20;94517.19;;;3.36;100.00
35989;BME280;22064;42.672;23.282;2022-12-08T07:01:46;94516.38;;;3.42;100.00
35989;BME280;22064;42.672;23.282;2022-12-08T07:04:11;94524.34;;;3.27;100.00
35989;BME280;22064;42.672;23.282;2022-12-08T07:06:37;94528.50;;;3.15;100.00
35989;BME280;22064;42.672;23.282;2022-12-08T07:09:02;94536.59;;;3.18;100.00
35989;BME280;22064;42.672;23.282;2022-12-08T07:11:28;94544.91;;;3.20;100.00
35989;BME280;22064;42.672;23.282;2022-12-08T07:13:55;94545.91;;;3.19;100.00
35989;BME280;22064;42.672;23.282;2022-12-08T07:16:21;94554.97;;;2.95;100.00
35989;BME280;22064;42.672;23.282;2022-12-08T07:18:47;94551.81;;;2.93;100.00
35989;BME280;22064;42.672;23.282;2022-12-08T07:21:13;94551.81;;;2.87;100.00
35989;BME280;22064;42.672;23.282;2022-12-08T07:23:40;94554.41;;;2.93;100.00
35989;BME280;22064;42.672;23.282;2022-12-08T07:26:07;94563.69;;;3.14;100.00
35989;BME280;22064;42.672;23.282;2022-12-08T07:28:35;94578.56;;;3.32;100.00
35989;BME280;22064;42.672;23.282;2022-12-08T07:31:02;94566.69;;;3.24;100.00
35989;BME280;22064;42.672;23.282;2022-12-08T07:33:28;94572.41;;;3.33;100.00
35989;BME280;22064;42.672;23.282;2022-12-08T07:35:59;94573.63;;;3.37;100.00
35989;BME280;22064;42.672;23.282;2022-12-08T07:38:25;94577.94;;;3.57;100.00
35989;BME280;22064;42.672;23.282;2022-12-08T07:40:52;94576.56;;;3.74;100.00
35989;BME280;22064;42.672;23.282;2022-12-08T07:43:18;94569.16;;;3.98;100.00
35989;BME280;22064;42.672;23.282;2022-12-08T07:45:44;94573.66;;;4.22;100.00
35989;BME280;22064;42.672;23.282;2022-12-08T07:48:10;94563.09;;;4.37;100.00
35989;BME280;22064;42.672;23.282;2022-12-08T07:50:35;94568.19;;;4.50;100.00
35989;BME280;22064;42.672;23.282;2022-12-08T07:53:01;94566.00;;;4.54;100.00
35989;BME280;22064;42.672;23.282;2022-12-08T07:55:27;94567.66;;;4.73;100.00
35989;BME280;22064;42.672;23.282;2022-12-08T07:57:53;94559.31;;;4.78;100.00
35989;BME280;22064;42.672;23.282;2022-12-08T08:00:19;94559.09;;;4.86;100.00
35989;BME280;22064;42.672;23.282;2022-12-08T08:02:45;94567.94;;;4.97;100.00
35989;BME280;22064;42.672;23.282;2022-12-08T08:05:10;94567.38;;;4.56;100.00
35989;BME280;22064;42.672;23.282;2022-12-08T08:07:37;94563.94;;;4.69;100.00
35989;BME280;22064;42.672;23.282;2022-12-08T08:10:04;94561.66;;;4.86;100.00
35989;BME280;22064;42.672;23.282;2022-12-08T08:12:31;94569.41;;;4.86;100.00
35989;BME280;22064;42.672;23.282;2022-12-08T08:14:57;94568.69;;;5.04;100.00
35989;BME280;22064;42.672;23.282;2022-12-08T08:17:22;94562.63;;;5.17;100.00
35989;BME280;22064;42.672;23.282;2022-12-08T08:19:48;94559.84;;;5.18;100.00
35989;BME280;22064;42.672;23.282;2022-12-08T08:22:14;94566.47;;;5.32;100.00
35989;BME280;22064;42.672;23.282;2022-12-08T08:24:39;94577.47;;;5.53;100.00
35989;BME280;22064;42.672;23.282;2022-12-08T08:27:05;94573.25;;;5.59;100.00
35989;BME280;22064;42.672;23.282;2022-12-08T08:29:30;94581.09;;;5.70;100.00
35989;BME280;22064;42.672;23.282;2022-12-08T08:31:56;94585.75;;;5.62;100.00
35989;BME280;22064;42.672;23.282;2022-12-08T08:34:22;94572.59;;;5.63;100.00
35989;BME280;22064;42.672;23.282;2022-12-08T08:36:47;94586.28;;;5.45;100.00
35989;BME280;22064;42.672;23.282;2022-12-08T08:39:13;94589.16;;;5.30;100.00
35989;BME280;22064;42.672;23.282;2022-12-08T08:41:38;94566.97;;;5.23;100.00
35989;BME280;22064;42.672;23.282;2022-12-08T08:44:04;94576.09;;;5.50;100.00
35989;BME280;22064;42.672;23.282;2022-12-08T08:46:30;94577.75;;;5.63;100.00
35989;BME280;22064;42.672;23.282;2022-12-08T08:48:56;94569.41;;;5.68;100.00
35989;BME280;22064;42.672;23.282;2022-12-08T08:51:22;94581.66;;;5.72;100.00
35989;BME280;22064;42.672;23.282;2022-12-08T08:53:47;94564.44;;;5.85;100.00
35989;BME280;22064;42.672;23.282;2022-12-08T08:56:15;94563.47;;;5.86;100.00
35989;BME280;22064;42.672;23.282;2022-12-08T08:58:44;94561.72;;;6.05;100.00
35989;BME280;22064;42.672;23.282;2022-12-08T09:01:14;94558.28;;;6.11;100.00
35989;BME280;22064;42.672;23.282;2022-12-08T09:03:40;94564.94;;;6.37;100.00
35989;BME280;22064;42.672;23.282;2022-12-08T09:06:06;94564.22;;;6.48;100.00
35989;BME280;22064;42.672;23.282;2022-12-08T09:08:31;94568.50;;;6.54;100.00
35989;BME280;22064;42.672;23.282;2022-12-08T09:10:57;94556.78;;;6.70;100.00
35989;BME280;22064;42.672;23.282;2022-12-08T09:13:22;94555.91;;;6.88;100.00
35989;BME280;22064;42.672;23.282;2022-12-08T09:15:48;94558.28;;;6.89;100.00
35989;BME280;22064;42.672;23.282;2022-12-08T09:18:13;94552.53;;;6.87;100.00
35989;BME280;22064;42.672;23.282;2022-12-08T09:20:39;94554.50;;;7.04;100.00
35989;BME280;22064;42.672;23.282;2022-12-08T09:23:04;94546.00;;;7.27;100.00
35989;BME280;22064;42.672;23.282;2022-12-08T09:25:30;94548.81;;;7.37;100.00
35989;BME280;22064;42.672;23.282;2022-12-08T09:27:56;94550.63;;;7.36;100.00
35989;BME280;22064;42.672;23.282;2022-12-08T09:30:21;94550.94;;;7.16;100.00
35989;BME280;22064;42.672;23.282;2022-12-08T09:32:47;94543.78;;;7.00;100.00
35989;BME280;22064;42.672;23.282;2022-12-08T09:35:12;94542.28;;;6.81;100.00
35989;BME280;22064;42.672;23.282;2022-12-08T09:37:38;94543.03;;;7.11;100.00
35989;BME280;22064;42.672;23.282;2022-12-08T09:40:05;94534.91;;;6.96;100.00
35989;BME280;22064;42.672;23.282;2022-12-08T09:42:43;94530.97;;;6.63;100.00
35989;BME280;22064;42.672;23.282;2022-12-08T09:45:13;94546.19;;;6.71;100.00
35989;BME280;22064;42.672;23.282;2022-12-08T09:47:44;94537.69;;;6.53;100.00
35989;BME280;22064;42.672;23.282;2022-12-08T09:50:22;94537.72;;;6.64;100.00
35989;BME280;22064;42.672;23.282;2022-12-08T09:55:46;94523.88;;;6.89;100.00
35989;BME280;22064;42.672;23.282;2022-12-08T10:01:17;94506.16;;;7.51;100.00
35989;BME280;22064;42.672;23.282;2022-12-08T10:03:43;94508.28;;;7.66;100.00
35989;BME280;22064;42.672;23.282;2022-12-08T10:11:48;94493.53;;;8.19;100.00
35989;BME280;22064;42.672;23.282;2022-12-08T10:16:53;94497.13;;;8.41;100.00
35989;BME280;22064;42.672;23.282;2022-12-08T10:19:24;94486.63;;;8.65;100.00
35989;BME280;22064;42.672;23.282;2022-12-08T10:21:52;94491.31;;;8.96;100.00
35989;BME280;22064;42.672;23.282;2022-12-08T10:26:52;94480.31;;;9.23;100.00
35989;BME280;22064;42.672;23.282;2022-12-08T10:29:18;94480.94;;;9.30;100.00
35989;BME280;22064;42.672;23.282;2022-12-08T10:31:44;94493.53;;;9.38;100.00
35989;BME280;22064;42.672;23.282;2022-12-08T10:34:21;94487.44;;;9.49;100.00
35989;BME280;22064;42.672;23.282;2022-12-08T10:36:55;94484.56;;;9.46;100.00
35989;BME280;22064;42.672;23.282;2022-12-08T10:44:56;94467.00;;;9.36;100.00
35989;BME280;22064;42.672;23.282;2022-12-08T10:47:25;94474.22;;;9.51;100.00
35989;BME280;22064;42.672;23.282;2022-12-08T10:52:39;94450.13;;;9.78;100.00
35989;BME280;22064;42.672;23.282;2022-12-08T10:55:38;94449.31;;;9.94;100.00
35989;BME280;22064;42.672;23.282;2022-12-08T10:58:04;94455.50;;;10.10;100.00
35989;BME280;22064;42.672;23.282;2022-12-08T11:00:30;94444.59;;;10.35;100.00
35989;BME280;22064;42.672;23.282;2022-12-08T11:03:01;94446.03;;;10.48;100.00
35989;BME280;22064;42.672;23.282;2022-12-08T11:05:33;94430.25;;;10.32;100.00
35989;BME280;22064;42.672;23.282;2022-12-08T11:07:59;94437.53;;;10.57;100.00
35989;BME280;22064;42.672;23.282;2022-12-08T11:10:34;94447.19;;;10.62;100.00
35989;BME280;22064;42.672;23.282;2022-12-08T11:13:03;94442.94;;;10.78;100.00
35989;BME280;22064;42.672;23.282;2022-12-08T11:15:34;94433.59;;;10.87;100.00
35989;BME280;22064;42.672;23.282;2022-12-08T11:18:29;94426.28;;;10.84;100.00
35989;BME280;22064;42.672;23.282;2022-12-08T11:21:09;94418.47;;;10.84;100.00
35989;BME280;22064;42.672;23.282;2022-12-08T11:23:36;94422.03;;;11.05;100.00
35989;BME280;22064;42.672;23.282;2022-12-08T11:26:13;94410.25;;;10.97;100.00
35989;BME280;22064;42.672;23.282;2022-12-08T11:28:40;94405.84;;;10.98;100.00
35989;BME280;22064;42.672;23.282;2022-12-08T11:31:17;94413.78;;;11.18;100.00
35989;BME280;22064;42.672;23.282;2022-12-08T11:33:47;94412.47;;;11.16;100.00
35989;BME280;22064;42.672;23.282;2022-12-08T11:36:16;94407.78;;;11.13;100.00
35989;BME280;22064;42.672;23.282;2022-12-08T11:38:45;94407.22;;;11.10;100.00
35989;BME280;22064;42.672;23.282;2022-12-08T11:41:16;94411.88;;;11.46;100.00
35989;BME280;22064;42.672;23.282;2022-12-08T11:43:53;94405.31;;;11.38;100.00
35989;BME280;22064;42.672;23.282;2022-12-08T11:46:37;94395.66;;;11.39;100.00
35989;BME280;22064;42.672;23.282;2022-12-08T11:49:09;94404.63;;;11.58;100.00
35989;BME280;22064;42.672;23.282;2022-12-08T11:51:49;94399.69;;;11.56;100.00
35989;BME280;22064;42.672;23.282;2022-12-08T11:54:28;94397.81;;;11.52;100.00
35989;BME280;22064;42.672;23.282;2022-12-08T11:57:00;94390.78;;;11.47;100.00
35989;BME280;22064;42.672;23.282;2022-12-08T11:59:35;94394.63;;;11.35;100.00
35989;BME280;22064;42.672;23.282;2022-12-08T12:02:15;94398.31;;;11.49;100.00
35989;BME280;22064;42.672;23.282;2022-12-08T12:07:48;94397.53;;;11.43;100.00
35989;BME280;22064;42.672;23.282;2022-12-08T12:19:13;94389.63;;;10.91;100.00
35989;BME280;22064;42.672;23.282;2022-12-08T12:21:43;94390.19;;;10.98;100.00
35989;BME280;22064;42.672;23.282;2022-12-08T12:24:17;94391.66;;;11.21;100.00
35989;BME280;22064;42.672;23.282;2022-12-08T12:26:58;94379.91;;;11.18;100.00
35989;BME280;22064;42.672;23.282;2022-12-08T12:29:28;94373.91;;;11.13;100.00
35989;BME280;22064;42.672;23.282;2022-12-08T12:32:06;94375.41;;;11.08;100.00
35989;BME280;22064;42.672;23.282;2022-12-08T12:34:36;94377.34;;;11.23;100.00
35989;BME280;22064;42.672;23.282;2022-12-08T12:37:09;94372.78;;;11.51;100.00
35989;BME280;22064;42.672;23.282;2022-12-08T12:45:22;94371.66;;;11.37;100.00
35989;BME280;22064;42.672;23.282;2022-12-08T12:47:49;94370.63;;;11.32;100.00
35989;BME280;22064;42.672;23.282;2022-12-08T13:03:45;94354.59;;;11.61;100.00
35989;BME280;22064;42.672;23.282;2022-12-08T13:06:22;94362.16;;;11.68;100.00
35989;BME280;22064;42.672;23.282;2022-12-08T13:08:50;94347.06;;;11.70;100.00
35989;BME280;22064;42.672;23.282;2022-12-08T13:11:17;94350.44;;;11.70;100.00
35989;BME280;22064;42.672;23.282;2022-12-08T13:14:28;94358.34;;;11.86;100.00
35989;BME280;22064;42.672;23.282;2022-12-08T13:16:56;94351.53;;;11.74;100.00
35989;BME280;22064;42.672;23.282;2022-12-08T13:19:22;94353.78;;;11.55;100.00
35989;BME280;22064;42.672;23.282;2022-12-08T13:21:47;94355.09;;;11.58;100.00
35989;BME280;22064;42.672;23.282;2022-12-08T13:24:26;94351.72;;;11.63;100.00
35989;BME280;22064;42.672;23.282;2022-12-08T13:29:36;94354.19;;;11.90;100.00
35989;BME280;22064;42.672;23.282;2022-12-08T13:34:52;94340.47;;;11.47;100.00
35989;BME280;22064;42.672;23.282;2022-12-08T13:37:33;94341.03;;;11.59;100.00
35989;BME280;22064;42.672;23.282;2022-12-08T13:40:15;94337.88;;;11.57;100.00
35989;BME280;22064;42.672;23.282;2022-12-08T13:42:47;94331.31;;;11.44;100.00
35989;BME280;22064;42.672;23.282;2022-12-08T13:45:21;94330.97;;;11.30;100.00
35989;BME280;22064;42.672;23.282;2022-12-08T13:48:04;94344.03;;;11.36;100.00
35989;BME280;22064;42.672;23.282;2022-12-08T13:53:12;94346.31;;;11.22;100.00
35989;BME280;22064;42.672;23.282;2022-12-08T13:55:42;94351.78;;;11.20;100.00
35989;BME280;22064;42.672;23.282;2022-12-08T14:00:52;94362.00;;;10.90;100.00
35989;BME280;22064;42.672;23.282;2022-12-08T14:03:18;94370.66;;;10.95;100.00
35989;BME280;22064;42.672;23.282;2022-12-08T14:05:44;94339.84;;;10.87;100.00
35989;BME280;22064;42.672;23.282;2022-12-08T14:08:18;94317.97;;;10.24;100.00
35989;BME280;22064;42.672;23.282;2022-12-08T14:10:51;94344.25;;;10.22;100.00
35989;BME280;22064;42.672;23.282;2022-12-08T14:13:18;94359.81;;;10.17;100.00
35989;BME280;22064;42.672;23.282;2022-12-08T14:15:43;94361.75;;;10.27;100.00
35989;BME280;22064;42.672;23.282;2022-12-08T14:18:30;94359.94;;;10.05;100.00
35989;BME280;22064;42.672;23.282;2022-12-08T14:21:13;94352.34;;;9.99;100.00
35989;BME280;22064;42.672;23.282;2022-12-08T14:23:43;94355.00;;;10.04;100.00
35989;BME280;22064;42.672;23.282;2022-12-08T14:26:09;94359.94;;;10.05;100.00
35989;BME280;22064;42.672;23.282;2022-12-08T14:28:36;94367.06;;;10.15;100.00
35989;BME280;22064;42.672;23.282;2022-12-08T14:31:02;94364.25;;;10.16;100.00
35989;BME280;22064;42.672;23.282;2022-12-08T14:33:29;94364.44;;;10.10;100.00
35989;BME280;22064;42.672;23.282;2022-12-08T14:35:56;94354.41;;;9.97;100.00
35989;BME280;22064;42.672;23.282;2022-12-08T14:38:23;94352.94;;;10.06;100.00